Time;durP1;ratioP1;P1;durP2;ratioP2;P2;SDS_P1;SDS_P2;PMS_P1;PMS_P2;Temp;Humidity;BMP_temperature;BMP_pressure;BME280_temperature;BME280_humidity;BME280_pressure;Samples;Min_cycle;Max_cycle;Signal;HPM_P1;HPM_P2
2022/08/15 00:02:21;;;;;;;4.32;1.80;;;;;;;21.08;82.00;93861.84;5045269;28;20060;-93
2022/08/15 00:04:46;;;;;;;1.85;1.30;;;;;;;21.14;79.10;93857.78;5062765;28;20055;-94
2022/08/15 00:07:13;;;;;;;2.95;1.50;;;;;;;20.99;84.11;93853.25;5044421;28;20029;-93
2022/08/15 00:09:40;;;;;;;3.97;1.45;;;;;;;20.95;87.09;93852.41;5064268;28;20438;-94
2022/08/15 00:12:06;;;;;;;4.03;1.75;;;;;;;21.05;83.05;93855.31;5062214;28;20028;-93
2022/08/15 00:17:55;;;;;;;1.77;1.40;;;;;;;20.83;78.91;93845.31;5060990;28;20095;-94
2022/08/15 00:20:21;;;;;;;2.42;1.73;;;;;;;20.89;79.97;93843.91;5043842;28;20036;-93
2022/08/15 00:22:49;;;;;;;2.88;1.55;;;;;;;20.96;79.93;93849.41;5047295;28;20100;-94
2022/08/15 00:25:15;;;;;;;3.67;1.88;;;;;;;20.81;78.86;93848.28;5061680;28;20028;-91
2022/08/15 00:27:41;;;;;;;2.67;1.60;;;;;;;20.62;79.37;93846.28;5058290;28;20021;-91
2022/08/15 00:30:08;;;;;;;3.67;1.63;;;;;;;20.49;79.15;93838.41;5057997;28;20052;-91
2022/08/15 00:32:36;;;;;;;1.73;1.38;;;;;;;20.43;81.05;93846.97;5058188;28;20029;-91
2022/08/15 00:37:55;;;;;;;2.05;1.60;;;;;;;20.58;90.78;93834.81;5060204;28;20039;-91
2022/08/15 00:40:22;;;;;;;1.70;1.45;;;;;;;20.46;80.84;93836.44;5061487;28;20063;-92
2022/08/15 00:42:51;;;;;;;4.63;1.50;;;;;;;20.32;84.06;93830.75;5045241;28;20033;-91
2022/08/15 00:45:19;;;;;;;2.00;1.60;;;;;;;20.38;85.95;93837.38;5042855;28;20029;-91
2022/08/15 00:48:41;;;;;;;3.38;1.50;;;;;;;20.25;86.99;93835.91;5060050;28;20062;-91
2022/08/15 00:50:30;;;;;;;3.50;1.10;;;;;;;20.14;87.10;93843.59;5058461;28;20086;-92
2022/08/15 00:52:56;;;;;;;3.42;1.83;;;;;;;19.99;87.76;93840.56;5058786;28;20029;-92
2022/08/15 00:55:22;;;;;;;4.43;1.85;;;;;;;19.87;83.82;93843.25;5061433;28;20111;-92
2022/08/15 00:57:48;;;;;;;3.58;1.60;;;;;;;19.71;84.52;93841.31;5057544;28;20040;-91
2022/08/15 01:00:15;;;;;;;3.97;1.63;;;;;;;19.83;83.80;93839.72;5058130;28;20025;-92
2022/08/15 01:02:41;;;;;;;1.80;1.38;;;;;;;19.80;85.33;93837.75;5041690;28;20434;-93
2022/08/15 01:05:12;;;;;;;3.15;1.83;;;;;;;19.95;81.72;93845.03;5058670;28;20025;-93
2022/08/15 01:07:40;;;;;;;3.10;1.63;;;;;;;20.02;78.24;93836.47;5060195;28;20338;-93
2022/08/15 01:10:09;;;;;;;7.85;1.75;;;;;;;20.10;84.77;93846.19;5045695;28;20433;-93
2022/08/15 01:12:44;;;;;;;3.03;1.70;;;;;;;20.10;80.21;93842.75;5043288;28;20040;-94
2022/08/15 01:15:13;;;;;;;2.10;1.60;;;;;;;19.96;87.04;93833.28;5047932;28;20346;-94
2022/08/15 01:17:39;;;;;;;2.95;1.73;;;;;;;20.06;86.85;93832.78;5046516;28;20033;-94
2022/08/15 01:20:17;;;;;;;3.40;1.67;;;;;;;20.06;83.58;93826.69;5042646;28;20032;-93
2022/08/15 01:22:56;;;;;;;4.78;1.67;;;;;;;19.97;83.98;93828.75;5056027;28;20031;-93
2022/08/15 01:25:38;;;;;;;3.00;1.70;;;;;;;19.88;91.46;93824.31;5046736;28;20028;-94
2022/08/15 01:28:10;;;;;;;2.20;1.73;;;;;;;19.81;88.52;93820.69;5059326;28;20047;-94
2022/08/15 01:30:57;;;;;;;2.20;1.60;;;;;;;19.86;88.80;93826.53;5042719;28;20033;-93
2022/08/15 01:33:26;;;;;;;2.78;1.67;;;;;;;19.89;90.93;93825.84;5041330;28;20075;-93
2022/08/15 01:36:00;;;;;;;4.93;1.83;;;;;;;19.77;90.22;93823.25;5059592;28;20043;-94
2022/08/15 01:38:27;;;;;;;2.15;1.55;;;;;;;19.84;90.34;93826.13;5057639;28;20033;-93
2022/08/15 01:41:04;;;;;;;3.92;2.10;;;;;;;19.83;87.94;93821.13;5058002;28;20037;-93
2022/08/15 01:43:33;;;;;;;2.95;1.70;;;;;;;19.84;87.11;93817.34;5040753;28;20055;-91
2022/08/15 01:46:05;;;;;;;4.10;2.03;;;;;;;19.81;89.21;93816.16;5042266;28;20033;-94
2022/08/15 01:48:35;;;;;;;5.32;1.98;;;;;;;19.78;92.35;93814.16;5058473;28;20033;-93
2022/08/15 01:51:06;;;;;;;3.28;1.92;;;;;;;19.90;96.17;93808.78;5057455;28;20032;-93
2022/08/15 01:53:36;;;;;;;4.10;2.05;;;;;;;19.77;98.76;93809.97;5041065;28;20458;-94
2022/08/15 01:56:07;;;;;;;3.60;1.80;;;;;;;19.63;96.46;93805.81;5057328;28;20033;-94
2022/08/15 01:58:37;;;;;;;7.13;1.95;;;;;;;19.61;95.95;93808.03;5057209;28;20430;-94
2022/08/15 02:01:08;;;;;;;4.25;2.05;;;;;;;19.69;94.41;93798.38;5056709;28;20028;-93
2022/08/15 02:03:38;;;;;;;4.82;1.70;;;;;;;19.65;96.05;93800.16;5056719;28;20397;-94
2022/08/15 02:06:09;;;;;;;2.95;1.90;;;;;;;19.64;96.48;93804.69;5040492;28;20342;-93
2022/08/15 02:08:46;;;;;;;;;;;;;;;;;;;;;
2022/08/15 02:11:19;;;;;;;4.68;1.70;;;;;;;19.69;95.52;93802.94;5056902;28;20434;-93
2022/08/15 02:13:46;;;;;;;4.32;1.50;;;;;;;19.63;95.25;93805.81;5039933;28;20040;-94
2022/08/15 02:16:13;;;;;;;1.83;1.52;;;;;;;19.59;96.81;93804.94;5057105;28;20419;-93
2022/08/15 02:18:40;;;;;;;3.60;1.80;;;;;;;19.58;99.56;93811.38;5056144;28;20056;-94
2022/08/15 02:21:05;;;;;;;3.17;2.03;;;;;;;19.72;100.00;93810.22;5058415;28;20033;-93
2022/08/15 02:23:32;;;;;;;6.68;2.10;;;;;;;19.55;100.00;93812.06;5049939;28;20067;-93
2022/08/15 02:25:57;;;;;;;4.88;1.90;;;;;;;19.45;100.00;93807.22;5041119;28;20072;-94
2022/08/15 02:28:23;;;;;;;2.45;1.95;;;;;;;19.29;100.00;93810.56;5060346;28;20029;-94
2022/08/15 02:30:49;;;;;;;3.60;1.80;;;;;;;19.27;100.00;93810.16;5057887;28;20039;-94
2022/08/15 02:33:15;;;;;;;4.00;2.05;;;;;;;19.23;100.00;93803.97;5041518;28;20037;-94
2022/08/15 02:35:42;;;;;;;3.55;2.08;;;;;;;19.15;100.00;93803.00;5040636;28;20028;-94
2022/08/15 02:38:10;;;;;;;4.18;2.47;;;;;;;19.04;100.00;93807.97;5040974;28;20461;-94
2022/08/15 02:40:36;;;;;;;4.93;2.30;;;;;;;19.11;100.00;93802.09;5040067;28;20393;-94
2022/08/15 02:43:07;;;;;;;2.30;1.67;;;;;;;19.10;100.00;93799.78;5039422;28;20036;-93
2022/08/15 02:45:37;;;;;;;3.10;1.85;;;;;;;19.09;100.00;93803.56;5061906;28;20032;-93
2022/08/15 02:48:08;;;;;;;2.85;2.10;;;;;;;18.99;100.00;93804.75;5043001;28;20055;-94
2022/08/15 02:50:35;;;;;;;2.50;1.67;;;;;;;18.98;100.00;93800.53;5041503;28;20065;-94
2022/08/15 02:53:21;;;;;;;3.10;1.98;;;;;;;18.81;100.00;93796.25;5058195;28;20029;-95
2022/08/15 02:55:47;;;;;;;4.65;1.85;;;;;;;18.83;100.00;93797.47;5056150;28;20040;-93
2022/08/15 02:58:14;;;;;;;3.90;1.85;;;;;;;18.88;100.00;93801.78;5040214;28;20032;-93
2022/08/15 03:00:42;;;;;;;4.00;2.33;;;;;;;18.83;100.00;93797.47;5056496;28;20024;-94
2022/08/15 03:03:11;;;;;;;2.90;1.77;;;;;;;18.77;100.00;93796.91;5045226;28;20024;-93
2022/08/15 03:05:40;;;;;;;6.20;2.20;;;;;;;18.83;100.00;93794.06;5041086;28;20086;-94
2022/08/15 03:08:06;;;;;;;5.15;1.90;;;;;;;18.77;100.00;93793.50;5045039;28;20036;-93
2022/08/15 03:10:32;;;;;;;4.32;2.25;;;;;;;18.67;100.00;93789.41;5046122;28;20075;-93
2022/08/15 03:13:10;;;;;;;3.38;1.83;;;;;;;18.67;100.00;93785.97;5057198;28;20084;-93
2022/08/15 03:15:54;;;;;;;5.88;2.10;;;;;;;18.68;100.00;93785.66;5056200;28;20035;-94
2022/08/15 03:18:20;;;;;;;2.65;2.17;;;;;;;18.64;100.00;93780.25;5043541;28;20423;-93
2022/08/15 03:20:57;;;;;;;3.60;1.80;;;;;;;18.65;100.00;93776.47;5058551;28;20031;-94
2022/08/15 03:23:32;;;;;;;3.85;2.13;;;;;;;18.61;100.00;93777.47;5042074;28;20033;-94
2022/08/15 03:25:59;;;;;;;2.42;1.70;;;;;;;18.70;100.00;93778.13;5040541;28;20119;-94
2022/08/15 03:28:28;;;;;;;3.38;1.88;;;;;;;18.68;100.00;93775.03;5055717;28;20029;-94
2022/08/15 03:30:55;;;;;;;3.03;2.22;;;;;;;18.56;100.00;93764.44;5061459;28;20051;-95
2022/08/15 03:33:28;;;;;;;4.43;1.90;;;;;;;18.72;100.00;93770.63;5045581;28;20029;-94
2022/08/15 03:35:57;;;;;;;3.17;2.10;;;;;;;18.41;100.00;93776.47;5069772;28;20037;-94
2022/08/15 03:38:23;;;;;;;3.03;1.90;;;;;;;18.67;100.00;93778.03;5059905;28;20346;-94
2022/08/15 03:41:00;;;;;;;;;;;;;;;;;;;;;
2022/08/15 03:43:36;;;;;;;3.13;2.03;;;;;;;18.54;100.00;93777.25;5060338;28;20021;-94
2022/08/15 03:46:06;;;;;;;3.50;1.90;;;;;;;18.19;100.00;93786.41;5049364;28;20082;-95
2022/08/15 03:48:35;;;;;;;3.00;2.05;;;;;;;18.25;100.00;93779.03;5049738;28;20029;-94
2022/08/15 03:51:11;;;;;;;;;;;;;;;;;;;;;
2022/08/15 03:53:44;;;;;;;4.03;2.17;;;;;;;18.12;100.00;93776.34;5060690;28;20029;-92
2022/08/15 03:56:14;;;;;;;3.23;1.83;;;;;;;18.20;100.00;93777.34;5049135;28;20123;-92
2022/08/15 03:58:40;;;;;;;3.70;2.10;;;;;;;18.28;100.00;93775.69;5050085;28;20033;-91
2022/08/15 04:01:11;;;;;;;4.47;2.33;;;;;;;18.35;100.00;93775.91;5044440;28;20029;-92
2022/08/15 04:03:44;;;;;;;2.75;1.75;;;;;;;18.33;100.00;93773.63;5045515;28;20513;-94
2022/08/15 04:06:18;;;;;;;2.80;1.88;;;;;;;18.41;100.00;93776.47;5045617;28;20025;-93
2022/08/15 04:08:46;;;;;;;2.60;1.88;;;;;;;18.46;100.00;93777.03;5043783;28;20021;-95
2022/08/15 04:11:12;;;;;;;2.90;2.00;;;;;;;18.50;100.00;93777.16;5046408;28;20033;-94
2022/08/15 04:13:40;;;;;;;3.78;2.20;;;;;;;18.48;100.00;93777.47;5042603;28;20040;-94
2022/08/15 04:16:07;;;;;;;8.95;1.95;;;;;;;18.41;100.00;93779.91;5043825;28;20032;-94
2022/08/15 04:18:41;;;;;;;4.03;1.95;;;;;;;18.34;100.00;93779.66;5044366;28;20056;-94
2022/08/15 04:21:10;;;;;;;3.50;1.88;;;;;;;18.40;100.00;93788.97;5043740;28;20079;-93
2022/08/15 04:23:45;;;;;;;3.75;2.15;;;;;;;18.41;100.00;93787.88;5045356;28;20029;-94
2022/08/15 04:26:12;;;;;;;3.30;2.25;;;;;;;18.36;100.00;93785.41;5047216;28;20036;-93
2022/08/15 04:28:40;;;;;;;4.45;1.90;;;;;;;18.32;100.00;93787.97;5059265;28;20377;-95
2022/08/15 04:31:11;;;;;;;4.63;1.90;;;;;;;18.40;100.00;93791.63;5043651;28;20063;-93
2022/08/15 04:33:37;;;;;;;5.68;2.08;;;;;;;18.32;100.00;93789.84;5047026;28;20067;-95
2022/08/15 04:36:19;;;;;;;;;;;;;;;;;;;;;
2022/08/15 04:38:54;;;;;;;2.78;1.85;;;;;;;18.40;100.00;93802.22;5062233;28;20116;-94
2022/08/15 04:41:20;;;;;;;9.20;2.40;;;;;;;18.41;100.00;93795.03;5060061;28;20075;-94
2022/08/15 04:43:45;;;;;;;3.85;2.05;;;;;;;18.43;100.00;93801.56;5042738;28;20115;-94
2022/08/15 04:46:13;;;;;;;3.63;2.17;;;;;;;18.44;100.00;93797.81;5061835;28;20052;-94
2022/08/15 04:48:39;;;;;;;7.57;2.15;;;;;;;18.50;100.00;93801.03;5060407;28;20032;-95
2022/08/15 04:51:06;;;;;;;4.10;2.22;;;;;;;18.57;100.00;93795.91;5048330;28;20033;-94
2022/08/15 04:53:46;;;;;;;;;;;;;;;;;;;;;
2022/08/15 04:56:14;;;;;;;6.13;2.25;;;;;;;18.47;100.00;93799.03;5060557;28;20025;-94
2022/08/15 04:58:39;;;;;;;2.28;1.80;;;;;;;18.44;100.00;93805.75;5044102;28;20087;-95
2022/08/15 05:01:11;;;;;;;3.88;2.10;;;;;;;18.58;100.00;93808.09;5042822;28;20029;-94
2022/08/15 05:06:58;;;;;;;3.28;2.42;;;;;;;18.62;100.00;93805.53;5060962;28;20084;-94
2022/08/15 05:09:24;;;;;;;2.40;2.17;;;;;;;18.63;100.00;93818.50;5060549;28;20039;-94
2022/08/15 05:11:57;;;;;;;3.70;1.90;;;;;;;18.79;100.00;93812.50;5042119;28;20434;-89
2022/08/15 05:14:22;;;;;;;5.10;2.20;;;;;;;19.00;100.00;93811.63;5041922;28;20032;-88
2022/08/15 05:16:55;;;;;;;3.47;2.00;;;;;;;19.03;100.00;93814.38;5040623;28;20017;-89
2022/08/15 05:19:21;;;;;;;3.42;2.45;;;;;;;18.94;100.00;93821.69;5057347;28;20108;-89
2022/08/15 05:21:46;;;;;;;2.70;2.20;;;;;;;19.02;100.00;93820.81;5057411;28;20124;-89
2022/08/15 05:24:14;;;;;;;3.10;2.00;;;;;;;18.88;100.00;93815.03;5057280;28;20031;-89
2022/08/15 05:26:39;;;;;;;7.47;3.25;;;;;;;19.06;100.00;93818.25;5056827;28;20082;-89
2022/08/15 05:29:07;;;;;;;8.95;2.25;;;;;;;19.28;100.00;93819.66;5057243;28;20033;-89
2022/08/15 05:31:33;;;;;;;5.03;1.90;;;;;;;19.15;100.00;93826.88;5058090;28;20100;-89
2022/08/15 05:34:03;;;;;;;2.55;2.20;;;;;;;19.21;100.00;93816.78;5039821;28;20067;-89
2022/08/15 05:36:29;;;;;;;3.13;2.00;;;;;;;19.34;100.00;93812.22;5056689;28;20033;-89
2022/08/15 05:38:58;;;;;;;4.13;2.17;;;;;;;19.53;100.00;93811.63;5040385;28;20063;-89
2022/08/15 05:41:32;;;;;;;3.92;2.20;;;;;;;19.64;100.00;93809.25;5040484;28;20040;-88
2022/08/15 05:44:01;;;;;;;3.53;1.70;;;;;;;19.81;100.00;93805.53;5056345;28;20043;-90
2022/08/15 05:46:26;;;;;;;2.70;1.92;;;;;;;19.93;100.00;93812.69;5056384;28;20033;-89
2022/08/15 05:49:05;;;;;;;2.45;2.05;;;;;;;20.17;100.00;93814.44;5056698;28;20037;-89
2022/08/15 05:51:41;;;;;;;3.42;2.10;;;;;;;20.35;100.00;93806.13;5040418;28;20029;-89
2022/08/15 05:54:19;;;;;;;5.68;1.98;;;;;;;20.52;100.00;93805.00;5039465;28;20025;-89
2022/08/15 05:57:13;;;;;;;3.10;2.20;;;;;;;20.59;100.00;93799.09;5056174;28;20504;-90
2022/08/15 05:59:40;;;;;;;2.47;2.00;;;;;;;20.83;100.00;93805.38;5056143;28;20028;-89
2022/08/15 06:02:32;;;;;;;2.90;1.60;;;;;;;21.08;100.00;93807.78;5039942;28;20413;-89
2022/08/15 06:05:13;;;;;;;2.30;1.98;;;;;;;21.12;100.00;93806.00;5056352;28;20036;-88
2022/08/15 06:07:45;;;;;;;3.78;1.73;;;;;;;21.25;100.00;93809.28;5056167;28;20029;-89
2022/08/15 06:10:26;;;;;;;2.45;1.67;;;;;;;21.33;100.00;93805.66;5039906;28;20068;-89
2022/08/15 06:12:59;;;;;;;2.80;1.98;;;;;;;21.47;100.00;93810.50;5056232;28;20021;-89
2022/08/15 06:15:39;;;;;;;4.50;2.13;;;;;;;21.60;100.00;93811.91;5039491;28;20029;-87
2022/08/15 06:18:09;;;;;;;4.78;2.10;;;;;;;21.54;100.00;93808.00;5039646;28;20131;-90
2022/08/15 06:20:43;;;;;;;3.03;2.05;;;;;;;21.66;100.00;93812.44;5039577;28;20478;-89
2022/08/15 06:23:30;;;;;;;8.77;2.08;;;;;;;21.67;100.00;93807.88;5056991;28;20029;-90
2022/08/15 06:26:42;;;;;;;2.20;1.85;;;;;;;21.91;100.00;93808.69;5039220;28;20083;-90
2022/08/15 06:29:28;;;;;;;2.67;1.80;;;;;;;22.05;100.00;93808.19;5015487;28;20072;-90
2022/08/15 06:32:07;;;;;;;3.38;2.00;;;;;;;22.20;100.00;93807.31;5055913;28;20120;-90
2022/08/15 06:34:42;;;;;;;3.88;2.10;;;;;;;22.08;100.00;93815.47;5039736;28;20457;-90
2022/08/15 06:37:22;;;;;;;2.97;2.00;;;;;;;22.00;100.00;93804.66;5055327;28;20025;-89
2022/08/15 06:40:03;;;;;;;3.60;2.22;;;;;;;22.24;100.00;93823.38;5056659;28;20029;-89
2022/08/15 06:42:34;;;;;;;3.47;2.15;;;;;;;22.11;100.00;93820.88;5055995;28;20442;-88
2022/08/15 06:45:08;;;;;;;5.55;2.10;;;;;;;22.30;100.00;93822.69;5039600;28;20027;-90
2022/08/15 06:47:33;;;;;;;8.88;2.15;;;;;;;22.27;100.00;93828.00;5039084;28;20020;-89
2022/08/15 06:50:09;;;;;;;2.30;1.80;;;;;;;22.50;100.00;93822.69;5039433;28;20032;-90
2022/08/15 06:52:35;;;;;;;3.85;2.28;;;;;;;22.64;100.00;93826.72;5039258;28;20132;-90
2022/08/15 06:55:00;;;;;;;3.55;1.70;;;;;;;22.60;100.00;93823.97;5039188;28;20048;-90
2022/08/15 06:57:39;;;;;;;3.53;1.92;;;;;;;22.79;100.00;93819.69;5039006;28;20082;-89
2022/08/15 07:00:14;;;;;;;3.72;2.17;;;;;;;22.88;100.00;93829.00;5055549;28;20040;-89
2022/08/15 07:03:05;;;;;;;3.15;2.08;;;;;;;22.84;100.00;93828.16;5055557;28;20437;-89
2022/08/15 07:05:40;;;;;;;3.03;2.08;;;;;;;22.98;100.00;93830.28;5058236;28;20358;-90
2022/08/15 07:08:18;;;;;;;3.17;2.03;;;;;;;23.25;100.00;93827.59;5043526;28;20017;-89
2022/08/15 07:10:50;;;;;;;10.07;2.10;;;;;;;23.32;100.00;93834.97;5043453;28;20441;-90
2022/08/15 07:13:24;;;;;;;3.70;1.80;;;;;;;23.43;100.00;93838.53;5059426;28;20082;-87
2022/08/15 07:16:02;;;;;;;2.78;1.70;;;;;;;23.63;100.00;93842.97;5042976;28;20146;-87
2022/08/15 07:18:28;;;;;;;4.25;2.20;;;;;;;23.71;96.64;93849.97;5043210;28;20140;-88
2022/08/15 07:21:16;;;;;;;5.60;2.17;;;;;;;23.73;93.27;93850.38;5060341;28;20489;-87
2022/08/15 07:24:11;;;;;;;3.70;2.15;;;;;;;23.75;99.43;93861.47;5043450;28;20031;-88
2022/08/15 07:26:50;;;;;;;3.47;1.75;;;;;;;23.89;95.21;93857.41;5058908;28;20025;-88
2022/08/15 07:29:31;;;;;;;2.88;1.80;;;;;;;24.05;94.16;93860.69;5042613;28;20438;-87
2022/08/15 07:32:08;;;;;;;2.70;1.70;;;;;;;24.07;93.85;93868.34;5059377;28;20025;-87
2022/08/15 07:34:35;;;;;;;3.70;1.67;;;;;;;24.10;90.63;93865.72;5043080;28;20025;-87
2022/08/15 07:37:04;;;;;;;3.42;2.17;;;;;;;24.19;93.76;93864.66;5042369;28;20060;-87
2022/08/15 07:39:40;;;;;;;4.68;2.05;;;;;;;23.91;93.73;93865.84;5042555;28;20025;-87
2022/08/15 07:42:18;;;;;;;3.00;2.17;;;;;;;24.03;99.53;93867.53;5042819;28;20056;-87
2022/08/15 07:44:56;;;;;;;4.45;1.92;;;;;;;23.91;97.39;93869.31;5042774;28;20060;-87
2022/08/15 07:47:26;;;;;;;2.08;1.60;;;;;;;24.25;95.68;93873.91;5042456;28;20384;-87
2022/08/15 07:50:09;;;;;;;3.30;2.03;;;;;;;24.40;89.56;93866.75;5042588;28;20029;-88
2022/08/15 07:52:36;;;;;;;7.38;2.38;;;;;;;24.50;91.35;93878.72;5042751;28;20032;-88
2022/08/15 07:55:20;;;;;;;2.35;1.85;;;;;;;24.47;92.66;93868.75;5042598;28;20426;-88
2022/08/15 07:58:03;;;;;;;2.92;2.00;;;;;;;24.32;87.38;93867.81;5042570;28;20116;-87
2022/08/15 08:00:33;;;;;;;2.72;2.33;;;;;;;24.53;96.63;93862.69;5042304;28;20021;-87
2022/08/15 08:03:01;;;;;;;5.25;2.00;;;;;;;24.60;95.80;93866.53;5042531;28;20025;-87
2022/08/15 08:05:31;;;;;;;4.38;2.38;;;;;;;24.70;95.65;93865.88;5042097;28;20028;-88
2022/08/15 08:07:58;;;;;;;7.43;2.15;;;;;;;24.75;94.75;93865.56;5058552;28;20025;-88
2022/08/15 08:10:41;;;;;;;2.75;2.10;;;;;;;24.74;87.67;93860.56;5058781;28;20480;-87
2022/08/15 08:13:34;;;;;;;2.83;2.13;;;;;;;24.94;87.83;93861.88;5058463;28;20021;-87
2022/08/15 08:16:04;;;;;;;5.90;2.65;;;;;;;25.01;96.33;93865.75;5058531;28;20434;-87
2022/08/15 08:18:35;;;;;;;4.40;2.40;;;;;;;25.06;87.51;93860.84;5058157;28;20087;-87
2022/08/15 08:21:04;;;;;;;6.00;2.30;;;;;;;25.29;87.70;93861.72;5058289;28;20017;-88
2022/08/15 08:23:31;;;;;;;6.15;3.28;;;;;;;24.94;93.25;93861.13;5041773;28;20025;-87
2022/08/15 08:26:08;;;;;;;4.95;2.72;;;;;;;25.25;93.43;93867.84;5041593;28;20031;-88
2022/08/15 08:28:46;;;;;;;8.27;2.78;;;;;;;25.24;88.21;93866.28;5058079;28;20048;-87
2022/08/15 08:31:26;;;;;;;5.85;2.80;;;;;;;25.25;91.29;93870.53;5041692;28;20308;-86
2022/08/15 08:34:05;;;;;;;4.70;2.63;;;;;;;25.42;87.57;93857.59;5058161;28;20032;-87
2022/08/15 08:37:02;;;;;;;3.83;2.58;;;;;;;25.52;91.68;93848.84;5058209;28;20024;-87
2022/08/15 08:39:43;;;;;;;3.70;2.60;;;;;;;25.59;88.43;93853.47;5058229;28;20025;-87
2022/08/15 08:42:18;;;;;;;7.28;2.47;;;;;;;25.44;85.93;93858.00;5058899;28;20147;-87
2022/08/15 08:45:01;;;;;;;5.82;2.38;;;;;;;25.49;85.07;93865.69;5058810;28;20102;-87
2022/08/15 08:47:56;;;;;;;6.60;2.72;;;;;;;25.80;82.14;93847.44;5041356;28;20024;-87
2022/08/15 08:50:33;;;;;;;6.18;2.95;;;;;;;25.85;83.44;93851.66;5058681;28;20055;-87
2022/08/15 08:53:18;;;;;;;5.85;2.80;;;;;;;25.17;85.27;93855.53;5058664;28;20082;-87
2022/08/15 08:56:01;;;;;;;7.47;2.53;;;;;;;26.03;86.21;93849.06;5058709;28;20074;-87
2022/08/15 08:58:32;;;;;;;7.55;2.90;;;;;;;26.38;77.36;93852.22;5057649;28;20452;-86
2022/08/15 09:01:02;;;;;;;4.35;2.15;;;;;;;26.30;78.86;93856.81;5057330;28;20021;-88
2022/08/15 09:03:34;;;;;;;6.03;2.55;;;;;;;26.27;76.72;93857.59;5057258;28;20025;-87
2022/08/15 09:06:00;;;;;;;7.22;2.92;;;;;;;26.44;80.90;93852.63;5058600;28;20021;-87
2022/08/15 09:08:51;;;;;;;5.40;2.40;;;;;;;26.46;79.78;93856.44;5057468;28;20027;-88
2022/08/15 09:11:21;;;;;;;4.65;2.50;;;;;;;26.74;73.90;93848.81;5058911;28;20025;-87
2022/08/15 09:13:47;;;;;;;5.43;2.38;;;;;;;26.71;73.45;93850.31;5057309;28;20054;-87
2022/08/15 09:16:15;;;;;;;5.13;2.65;;;;;;;27.15;72.69;93851.09;5057143;28;20032;-88
2022/08/15 09:19:03;;;;;;;10.73;3.00;;;;;;;27.42;69.44;93845.28;5058095;28;20029;-87
2022/08/15 09:21:28;;;;;;;6.82;2.70;;;;;;;27.32;71.45;93836.06;5057433;28;20031;-87
2022/08/15 09:23:54;;;;;;;6.50;2.70;;;;;;;26.41;73.79;93835.34;5040389;28;20025;-87
2022/08/15 09:26:37;;;;;;;7.85;2.90;;;;;;;26.87;75.01;93833.06;5058051;28;20021;-88
2022/08/15 09:29:26;;;;;;;5.57;2.72;;;;;;;26.52;75.56;93840.72;5056440;28;20040;-87
2022/08/15 09:32:09;;;;;;;5.57;2.80;;;;;;;26.23;79.19;93829.94;5040468;28;20021;-87
2022/08/15 09:34:48;;;;;;;5.38;2.63;;;;;;;26.71;77.92;93830.75;5057137;28;20029;-86
2022/08/15 09:37:36;;;;;;;14.35;3.17;;;;;;;26.77;77.56;93831.91;5056483;28;20108;-88
2022/08/15 09:40:10;;;;;;;7.00;2.53;;;;;;;26.43;68.96;93832.28;5040340;28;20032;-86
2022/08/15 09:42:59;;;;;;;3.88;2.40;;;;;;;25.95;72.82;93837.53;5056976;28;20029;-87
2022/08/15 09:45:34;;;;;;;5.82;2.38;;;;;;;25.96;70.69;93830.22;5056388;28;20025;-87
2022/08/15 09:48:47;;;;;;;7.03;2.90;;;;;;;26.10;68.02;93824.91;5057440;28;20423;-87
2022/08/15 09:51:26;;;;;;;7.93;2.75;;;;;;;26.30;70.37;93816.53;5056583;28;20435;-87
2022/08/15 09:54:08;;;;;;;4.78;2.38;;;;;;;26.43;68.85;93808.88;5056604;28;20032;-88
2022/08/15 09:56:36;;;;;;;7.20;2.50;;;;;;;26.38;68.21;93804.63;5040346;28;20414;-87
2022/08/15 09:59:02;;;;;;;4.57;2.65;;;;;;;26.64;63.62;93794.69;5040284;28;20094;-87
2022/08/15 10:01:29;;;;;;;6.68;2.65;;;;;;;27.02;64.47;93801.59;5057280;28;20434;-87
2022/08/15 10:03:56;;;;;;;6.22;2.60;;;;;;;27.35;63.72;93797.66;5056287;28;20085;-87
2022/08/15 10:06:48;;;;;;;9.63;2.67;;;;;;;27.30;64.06;93810.75;5039729;28;20082;-86
2022/08/15 10:09:30;;;;;;;6.30;2.53;;;;;;;27.47;62.64;93812.59;5056176;28;20116;-87
2022/08/15 10:12:16;;;;;;;6.68;3.17;;;;;;;27.31;62.04;93817.66;5056125;28;20052;-87
2022/08/15 10:14:47;;;;;;;5.97;2.60;;;;;;;27.58;63.89;93807.19;5048690;28;20063;-87
2022/08/15 10:17:37;;;;;;;8.93;2.80;;;;;;;27.41;61.88;93816.84;5056765;28;20398;-87
2022/08/15 10:20:14;;;;;;;11.38;2.67;;;;;;;26.48;64.01;93824.63;5056051;28;20034;-87
2022/08/15 10:22:56;;;;;;;8.45;2.70;;;;;;;27.54;61.99;93825.28;5056199;28;20035;-86
2022/08/15 10:25:29;;;;;;;6.32;2.33;;;;;;;27.85;58.58;93822.09;5039239;28;20049;-87
2022/08/15 10:28:01;;;;;;;6.68;2.40;;;;;;;28.03;59.17;93814.69;5056295;28;20025;-87
2022/08/15 10:30:30;;;;;;;4.90;2.55;;;;;;;28.35;58.60;93827.22;5056853;28;20024;-87
2022/08/15 10:32:57;;;;;;;5.55;2.75;;;;;;;27.83;57.34;93829.78;5039291;28;20128;-87
2022/08/15 10:35:35;;;;;;;4.22;2.20;;;;;;;27.06;58.19;93837.28;5055752;28;20094;-87
2022/08/15 10:38:03;;;;;;;6.78;2.20;;;;;;;28.02;56.21;93836.59;5039397;28;20060;-87
2022/08/15 10:40:59;;;;;;;7.03;2.65;;;;;;;27.80;57.16;93829.41;5055318;28;20091;-87
2022/08/15 10:43:29;;;;;;;5.30;2.20;;;;;;;27.60;56.38;93828.34;5056948;28;20025;-86
2022/08/15 10:46:35;;;;;;;5.97;2.30;;;;;;;27.48;57.98;93824.88;5055506;28;20327;-86
2022/08/15 10:49:12;;;;;;;6.43;2.38;;;;;;;27.07;57.65;93828.84;5055596;28;20029;-87
2022/08/15 10:51:47;;;;;;;6.72;2.10;;;;;;;27.85;54.88;93827.47;5056438;28;20123;-87
2022/08/15 10:54:24;;;;;;;5.60;2.65;;;;;;;27.74;53.93;93814.06;5039227;28;20056;-87
2022/08/15 10:56:54;;;;;;;4.90;2.28;;;;;;;28.93;52.56;93816.00;5055401;28;20029;-86
2022/08/15 10:59:35;;;;;;;3.97;2.30;;;;;;;28.05;53.25;93800.84;5056774;28;20029;-86
2022/08/15 11:02:27;;;;;;;9.65;1.98;;;;;;;27.41;54.94;93798.03;5055251;28;20116;-87
2022/08/15 11:05:02;;;;;;;6.18;2.50;;;;;;;27.94;53.83;93814.34;5038818;28;20079;-86
2022/08/15 11:07:27;;;;;;;4.25;2.22;;;;;;;28.87;53.95;93812.22;5055470;28;20017;-87
2022/08/15 11:09:56;;;;;;;4.00;1.98;;;;;;;28.60;52.31;93815.50;5055379;28;20124;-87
2022/08/15 11:12:23;;;;;;;4.97;2.55;;;;;;;28.30;53.21;93814.19;5055138;28;20028;-87
2022/08/15 11:14:56;;;;;;;7.95;2.78;;;;;;;27.29;54.84;93817.28;5055409;28;20025;-87
2022/08/15 11:17:26;;;;;;;4.00;2.38;;;;;;;27.52;55.39;93804.16;5039077;28;20025;-86
2022/08/15 11:19:53;;;;;;;5.60;2.22;;;;;;;28.06;54.38;93811.19;5055080;28;20056;-86
2022/08/15 11:22:33;;;;;;;4.72;2.38;;;;;;;27.84;53.54;93809.81;5038317;28;20465;-87
2022/08/15 11:25:11;;;;;;;10.98;2.40;;;;;;;28.61;52.08;93806.25;5056406;28;20112;-87
2022/08/15 11:27:37;;;;;;;6.95;2.50;;;;;;;28.67;52.11;93798.50;5060333;28;20032;-87
2022/08/15 11:30:08;;;;;;;4.68;2.75;;;;;;;28.39;51.73;93802.16;5059611;28;20021;-86
2022/08/15 11:32:36;;;;;;;4.00;2.17;;;;;;;29.12;51.70;93786.19;5072380;28;20025;-87
2022/08/15 11:35:19;;;;;;;7.05;2.58;;;;;;;29.10;52.31;93797.34;5055147;28;20036;-87
2022/08/15 11:37:44;;;;;;;6.47;2.17;;;;;;;29.48;50.32;93791.97;5054939;28;20108;-88
2022/08/15 11:40:37;;;;;;;6.35;2.60;;;;;;;29.21;50.50;93784.53;5055211;28;20358;-87
2022/08/15 11:43:06;;;;;;;5.40;2.53;;;;;;;29.54;49.38;93784.19;5035520;28;20029;-88
2022/08/15 11:45:41;;;;;;;7.40;2.50;;;;;;;28.37;49.46;93786.44;5049157;28;20074;-89
2022/08/15 11:48:12;;;;;;;3.47;1.90;;;;;;;29.11;48.18;93776.56;5038764;28;20330;-90
2022/08/15 11:50:46;;;;;;;6.32;2.50;;;;;;;28.86;48.09;93778.34;5039051;28;20025;-88
2022/08/15 11:53:25;;;;;;;;;;;;;;;;;;;;;
2022/08/15 11:56:00;;;;;;;6.45;2.53;;;;;;;28.89;46.96;93782.16;5050259;28;20025;-92
2022/08/15 11:58:38;;;;;;;5.82;2.40;;;;;;;29.24;46.31;93787.59;5043661;28;20387;-92
2022/08/15 12:01:44;;;;;;;4.53;2.20;;;;;;;28.57;47.23;93775.88;5058565;28;20078;-89
2022/08/15 12:04:12;;;;;;;6.15;2.28;;;;;;;29.13;46.90;93787.72;5021523;28;20025;-87
2022/08/15 12:06:40;;;;;;;6.05;2.15;;;;;;;29.48;46.48;93783.88;5020752;28;20062;-90
2022/08/15 12:09:10;;;;;;;7.90;2.10;;;;;;;29.65;44.93;93786.00;5031843;28;20055;-91
2022/08/15 12:11:42;;;;;;;5.10;2.25;;;;;;;29.16;46.78;93789.59;5041696;28;20032;-89
2022/08/15 12:14:25;;;;;;;4.82;1.80;;;;;;;29.86;44.49;93776.88;5058383;28;20315;-91
2022/08/15 12:16:52;;;;;;;3.88;2.50;;;;;;;29.40;45.88;93770.84;5041407;28;20040;-89